sensor_id;sensor_type;location;lat;lon;timestamp;P1;durP1;ratioP1;P2;durP2;ratioP2
78612;SDS011;67933;51.060;3.638;2023-04-24T00:02:09;23.33;;;12.75;;
78612;SDS011;67933;51.060;3.638;2023-04-24T00:04:36;24.13;;;12.60;;
78612;SDS011;67933;51.060;3.638;2023-04-24T00:07:05;23.80;;;11.80;;
78612;SDS011;67933;51.060;3.638;2023-04-24T00:09:31;21.60;;;12.13;;
78612;SDS011;67933;51.060;3.638;2023-04-24T00:11:57;22.75;;;12.00;;
78612;SDS011;67933;51.060;3.638;2023-04-24T00:14:22;21.13;;;11.68;;
78612;SDS011;67933;51.060;3.638;2023-04-24T00:16:48;19.25;;;11.18;;
78612;SDS011;67933;51.060;3.638;2023-04-24T00:19:13;21.83;;;11.65;;
78612;SDS011;67933;51.060;3.638;2023-04-24T00:21:39;27.92;;;12.30;;
78612;SDS011;67933;51.060;3.638;2023-04-24T00:24:05;21.58;;;11.35;;
78612;SDS011;67933;51.060;3.638;2023-04-24T00:26:31;20.20;;;11.57;;
78612;SDS011;67933;51.060;3.638;2023-04-24T00:28:56;24.10;;;11.20;;
78612;SDS011;67933;51.060;3.638;2023-04-24T00:31:22;18.63;;;11.20;;
78612;SDS011;67933;51.060;3.638;2023-04-24T00:33:47;25.52;;;12.10;;
78612;SDS011;67933;51.060;3.638;2023-04-24T00:36:13;16.65;;;10.93;;
78612;SDS011;67933;51.060;3.638;2023-04-24T00:38:38;20.27;;;11.63;;
78612;SDS011;67933;51.060;3.638;2023-04-24T00:41:03;19.23;;;11.07;;
78612;SDS011;67933;51.060;3.638;2023-04-24T00:43:29;17.45;;;11.00;;
78612;SDS011;67933;51.060;3.638;2023-04-24T00:45:54;16.27;;;9.43;;
78612;SDS011;67933;51.060;3.638;2023-04-24T00:48:23;16.38;;;10.75;;
78612;SDS011;67933;51.060;3.638;2023-04-24T00:50:50;15.68;;;10.00;;
78612;SDS011;67933;51.060;3.638;2023-04-24T00:53:15;14.30;;;8.45;;
78612;SDS011;67933;51.060;3.638;2023-04-24T00:55:41;12.32;;;8.20;;
78612;SDS011;67933;51.060;3.638;2023-04-24T00:58:06;15.38;;;8.77;;
78612;SDS011;67933;51.060;3.638;2023-04-24T01:00:31;13.55;;;7.80;;
78612;SDS011;67933;51.060;3.638;2023-04-24T01:02:57;16.15;;;8.50;;
78612;SDS011;67933;51.060;3.638;2023-04-24T01:05:25;15.32;;;8.85;;
78612;SDS011;67933;51.060;3.638;2023-04-24T01:07:51;15.05;;;8.52;;
78612;SDS011;67933;51.060;3.638;2023-04-24T01:10:16;14.90;;;9.27;;
78612;SDS011;67933;51.060;3.638;2023-04-24T01:12:42;15.00;;;9.32;;
78612;SDS011;67933;51.060;3.638;2023-04-24T01:15:08;16.20;;;9.20;;
78612;SDS011;67933;51.060;3.638;2023-04-24T01:17:34;14.00;;;8.80;;
78612;SDS011;67933;51.060;3.638;2023-04-24T01:20:00;15.68;;;8.63;;
78612;SDS011;67933;51.060;3.638;2023-04-24T01:22:26;15.82;;;9.40;;
78612;SDS011;67933;51.060;3.638;2023-04-24T01:24:52;13.68;;;8.40;;
78612;SDS011;67933;51.060;3.638;2023-04-24T01:27:18;15.45;;;8.55;;
78612;SDS011;67933;51.060;3.638;2023-04-24T01:29:45;17.02;;;9.43;;
78612;SDS011;67933;51.060;3.638;2023-04-24T01:32:12;18.05;;;9.25;;
78612;SDS011;67933;51.060;3.638;2023-04-24T01:34:38;15.88;;;10.13;;
78612;SDS011;67933;51.060;3.638;2023-04-24T01:37:04;18.50;;;9.48;;
78612;SDS011;67933;51.060;3.638;2023-04-24T01:39:30;15.88;;;9.48;;
78612;SDS011;67933;51.060;3.638;2023-04-24T01:41:55;17.23;;;9.98;;
78612;SDS011;67933;51.060;3.638;2023-04-24T01:44:21;16.65;;;10.13;;
78612;SDS011;67933;51.060;3.638;2023-04-24T01:46:47;18.75;;;10.38;;
78612;SDS011;67933;51.060;3.638;2023-04-24T01:49:13;17.48;;;10.35;;
78612;SDS011;67933;51.060;3.638;2023-04-24T01:51:38;20.48;;;10.68;;
78612;SDS011;67933;51.060;3.638;2023-04-24T01:54:04;19.45;;;11.27;;
78612;SDS011;67933;51.060;3.638;2023-04-24T01:56:30;22.25;;;12.45;;
78612;SDS011;67933;51.060;3.638;2023-04-24T01:58:58;22.73;;;12.18;;
78612;SDS011;67933;51.060;3.638;2023-04-24T02:01:25;23.55;;;11.45;;
78612;SDS011;67933;51.060;3.638;2023-04-24T02:03:50;20.17;;;11.35;;
78612;SDS011;67933;51.060;3.638;2023-04-24T02:06:16;25.05;;;12.60;;
78612;SDS011;67933;51.060;3.638;2023-04-24T02:08:41;24.85;;;12.60;;
78612;SDS011;67933;51.060;3.638;2023-04-24T02:11:08;26.25;;;13.18;;
78612;SDS011;67933;51.060;3.638;2023-04-24T02:13:34;25.00;;;12.57;;
78612;SDS011;67933;51.060;3.638;2023-04-24T02:16:00;23.90;;;12.50;;
78612;SDS011;67933;51.060;3.638;2023-04-24T02:18:26;20.67;;;12.10;;
78612;SDS011;67933;51.060;3.638;2023-04-24T02:20:51;19.63;;;11.50;;
78612;SDS011;67933;51.060;3.638;2023-04-24T02:23:16;21.73;;;11.98;;
78612;SDS011;67933;51.060;3.638;2023-04-24T02:25:42;25.13;;;13.35;;
78612;SDS011;67933;51.060;3.638;2023-04-24T02:28:07;24.13;;;12.30;;
78612;SDS011;67933;51.060;3.638;2023-04-24T02:30:32;26.33;;;12.85;;
78612;SDS011;67933;51.060;3.638;2023-04-24T02:32:58;18.45;;;9.90;;
78612;SDS011;67933;51.060;3.638;2023-04-24T02:35:23;18.75;;;9.63;;
78612;SDS011;67933;51.060;3.638;2023-04-24T02:37:49;22.15;;;11.02;;
78612;SDS011;67933;51.060;3.638;2023-04-24T02:40:14;20.15;;;10.48;;
78612;SDS011;67933;51.060;3.638;2023-04-24T02:42:40;15.70;;;7.40;;
78612;SDS011;67933;51.060;3.638;2023-04-24T02:45:05;13.32;;;6.43;;
78612;SDS011;67933;51.060;3.638;2023-04-24T02:47:31;10.45;;;6.20;;
78612;SDS011;67933;51.060;3.638;2023-04-24T02:49:57;14.52;;;6.25;;
78612;SDS011;67933;51.060;3.638;2023-04-24T02:52:22;9.32;;;5.07;;
78612;SDS011;67933;51.060;3.638;2023-04-24T02:54:47;9.77;;;5.82;;
78612;SDS011;67933;51.060;3.638;2023-04-24T02:57:13;7.65;;;4.35;;
78612;SDS011;67933;51.060;3.638;2023-04-24T02:59:38;7.78;;;4.22;;
78612;SDS011;67933;51.060;3.638;2023-04-24T03:02:03;10.60;;;5.38;;
78612;SDS011;67933;51.060;3.638;2023-04-24T03:04:29;10.27;;;4.50;;
78612;SDS011;67933;51.060;3.638;2023-04-24T03:06:54;10.02;;;5.45;;
78612;SDS011;67933;51.060;3.638;2023-04-24T03:09:20;11.27;;;5.63;;
78612;SDS011;67933;51.060;3.638;2023-04-24T03:11:46;10.27;;;6.32;;
78612;SDS011;67933;51.060;3.638;2023-04-24T03:14:12;17.98;;;6.43;;
78612;SDS011;67933;51.060;3.638;2023-04-24T03:16:37;12.18;;;6.13;;
78612;SDS011;67933;51.060;3.638;2023-04-24T03:19:02;10.25;;;6.25;;
78612;SDS011;67933;51.060;3.638;2023-04-24T03:21:28;11.45;;;6.13;;
78612;SDS011;67933;51.060;3.638;2023-04-24T03:23:53;11.02;;;6.63;;
78612;SDS011;67933;51.060;3.638;2023-04-24T03:26:19;13.52;;;7.00;;
78612;SDS011;67933;51.060;3.638;2023-04-24T03:28:46;16.20;;;8.52;;
78612;SDS011;67933;51.060;3.638;2023-04-24T03:31:11;16.40;;;8.20;;
78612;SDS011;67933;51.060;3.638;2023-04-24T03:33:37;14.27;;;8.85;;
78612;SDS011;67933;51.060;3.638;2023-04-24T03:36:02;20.15;;;8.20;;
78612;SDS011;67933;51.060;3.638;2023-04-24T03:38:28;20.27;;;10.43;;
78612;SDS011;67933;51.060;3.638;2023-04-24T03:40:53;20.10;;;9.40;;
78612;SDS011;67933;51.060;3.638;2023-04-24T03:43:18;19.83;;;9.65;;
78612;SDS011;67933;51.060;3.638;2023-04-24T03:45:44;23.50;;;11.18;;
78612;SDS011;67933;51.060;3.638;2023-04-24T03:48:10;17.83;;;10.27;;
78612;SDS011;67933;51.060;3.638;2023-04-24T03:50:35;18.65;;;10.65;;
78612;SDS011;67933;51.060;3.638;2023-04-24T03:53:00;22.95;;;10.85;;
78612;SDS011;67933;51.060;3.638;2023-04-24T03:55:26;19.15;;;9.93;;
78612;SDS011;67933;51.060;3.638;2023-04-24T03:57:51;17.90;;;9.38;;
78612;SDS011;67933;51.060;3.638;2023-04-24T04:00:16;17.85;;;9.45;;
78612;SDS011;67933;51.060;3.638;2023-04-24T04:02:43;17.10;;;10.02;;
78612;SDS011;67933;51.060;3.638;2023-04-24T04:05:08;17.75;;;9.38;;
78612;SDS011;67933;51.060;3.638;2023-04-24T04:07:34;16.02;;;9.30;;
78612;SDS011;67933;51.060;3.638;2023-04-24T04:09:59;22.33;;;10.13;;
78612;SDS011;67933;51.060;3.638;2023-04-24T04:12:25;21.45;;;10.10;;
78612;SDS011;67933;51.060;3.638;2023-04-24T04:14:50;21.67;;;10.40;;
78612;SDS011;67933;51.060;3.638;2023-04-24T04:17:15;17.85;;;9.45;;
78612;SDS011;67933;51.060;3.638;2023-04-24T04:19:41;20.73;;;9.30;;
78612;SDS011;67933;51.060;3.638;2023-04-24T04:22:06;19.92;;;9.85;;
78612;SDS011;67933;51.060;3.638;2023-04-24T04:24:33;20.75;;;10.50;;
78612;SDS011;67933;51.060;3.638;2023-04-24T04:26:58;20.38;;;10.63;;
78612;SDS011;67933;51.060;3.638;2023-04-24T04:29:25;21.90;;;9.13;;
78612;SDS011;67933;51.060;3.638;2023-04-24T04:31:50;19.33;;;9.40;;
78612;SDS011;67933;51.060;3.638;2023-04-24T04:34:16;17.73;;;9.38;;
78612;SDS011;67933;51.060;3.638;2023-04-24T04:36:42;17.08;;;8.20;;
78612;SDS011;67933;51.060;3.638;2023-04-24T04:39:08;18.70;;;9.07;;
78612;SDS011;67933;51.060;3.638;2023-04-24T04:41:34;22.40;;;8.68;;
78612;SDS011;67933;51.060;3.638;2023-04-24T04:44:02;16.65;;;8.48;;
78612;SDS011;67933;51.060;3.638;2023-04-24T04:46:29;20.30;;;9.77;;
78612;SDS011;67933;51.060;3.638;2023-04-24T04:48:57;18.45;;;9.98;;
78612;SDS011;67933;51.060;3.638;2023-04-24T04:51:22;16.08;;;10.05;;
78612;SDS011;67933;51.060;3.638;2023-04-24T04:53:48;17.10;;;9.73;;
78612;SDS011;67933;51.060;3.638;2023-04-24T04:56:13;15.70;;;8.77;;
78612;SDS011;67933;51.060;3.638;2023-04-24T04:58:39;18.50;;;9.50;;
78612;SDS011;67933;51.060;3.638;2023-04-24T05:01:04;16.38;;;9.63;;
78612;SDS011;67933;51.060;3.638;2023-04-24T05:03:30;14.23;;;8.52;;
78612;SDS011;67933;51.060;3.638;2023-04-24T05:05:55;17.13;;;9.32;;
78612;SDS011;67933;51.060;3.638;2023-04-24T05:08:20;22.10;;;9.63;;
78612;SDS011;67933;51.060;3.638;2023-04-24T05:10:46;15.80;;;9.32;;
78612;SDS011;67933;51.060;3.638;2023-04-24T05:13:13;22.20;;;10.02;;
78612;SDS011;67933;51.060;3.638;2023-04-24T05:15:38;20.52;;;9.38;;
78612;SDS011;67933;51.060;3.638;2023-04-24T05:18:03;21.10;;;10.00;;
78612;SDS011;67933;51.060;3.638;2023-04-24T05:20:29;19.10;;;9.80;;
78612;SDS011;67933;51.060;3.638;2023-04-24T05:22:55;19.63;;;9.70;;
78612;SDS011;67933;51.060;3.638;2023-04-24T05:25:20;17.88;;;9.52;;
78612;SDS011;67933;51.060;3.638;2023-04-24T05:27:46;20.20;;;9.80;;
78612;SDS011;67933;51.060;3.638;2023-04-24T05:30:11;20.95;;;10.32;;
78612;SDS011;67933;51.060;3.638;2023-04-24T05:32:37;22.58;;;10.00;;
78612;SDS011;67933;51.060;3.638;2023-04-24T05:35:02;25.58;;;10.95;;
78612;SDS011;67933;51.060;3.638;2023-04-24T05:37:28;19.45;;;9.95;;
78612;SDS011;67933;51.060;3.638;2023-04-24T05:39:53;20.67;;;10.65;;
78612;SDS011;67933;51.060;3.638;2023-04-24T05:42:19;28.40;;;12.52;;
78612;SDS011;67933;51.060;3.638;2023-04-24T05:44:44;19.25;;;10.80;;
78612;SDS011;67933;51.060;3.638;2023-04-24T05:47:09;20.88;;;10.32;;
78612;SDS011;67933;51.060;3.638;2023-04-24T05:49:35;24.25;;;11.45;;
78612;SDS011;67933;51.060;3.638;2023-04-24T05:52:00;23.13;;;10.65;;
78612;SDS011;67933;51.060;3.638;2023-04-24T05:54:26;25.02;;;11.77;;
78612;SDS011;67933;51.060;3.638;2023-04-24T05:56:51;26.85;;;11.73;;
78612;SDS011;67933;51.060;3.638;2023-04-24T05:59:16;28.15;;;12.55;;
78612;SDS011;67933;51.060;3.638;2023-04-24T06:01:42;28.25;;;12.98;;
78612;SDS011;67933;51.060;3.638;2023-04-24T06:04:07;27.95;;;12.20;;
78612;SDS011;67933;51.060;3.638;2023-04-24T06:06:33;23.92;;;12.60;;
78612;SDS011;67933;51.060;3.638;2023-04-24T06:09:00;26.00;;;11.10;;
78612;SDS011;67933;51.060;3.638;2023-04-24T06:11:25;29.60;;;11.52;;
78612;SDS011;67933;51.060;3.638;2023-04-24T06:13:51;30.13;;;12.52;;
78612;SDS011;67933;51.060;3.638;2023-04-24T06:16:17;29.55;;;11.98;;
78612;SDS011;67933;51.060;3.638;2023-04-24T06:18:42;26.00;;;12.15;;
78612;SDS011;67933;51.060;3.638;2023-04-24T06:21:08;22.02;;;10.73;;
78612;SDS011;67933;51.060;3.638;2023-04-24T06:23:33;23.77;;;9.95;;
78612;SDS011;67933;51.060;3.638;2023-04-24T06:25:59;25.05;;;10.68;;
78612;SDS011;67933;51.060;3.638;2023-04-24T06:28:24;20.10;;;10.20;;
78612;SDS011;67933;51.060;3.638;2023-04-24T06:30:50;21.77;;;10.38;;
78612;SDS011;67933;51.060;3.638;2023-04-24T06:33:16;21.30;;;9.38;;
78612;SDS011;67933;51.060;3.638;2023-04-24T06:35:41;18.02;;;9.27;;
78612;SDS011;67933;51.060;3.638;2023-04-24T06:38:07;22.42;;;8.43;;
78612;SDS011;67933;51.060;3.638;2023-04-24T06:40:32;16.88;;;8.68;;
78612;SDS011;67933;51.060;3.638;2023-04-24T06:42:58;21.73;;;10.57;;
78612;SDS011;67933;51.060;3.638;2023-04-24T06:45:25;22.63;;;10.55;;
78612;SDS011;67933;51.060;3.638;2023-04-24T06:47:50;22.98;;;9.70;;
78612;SDS011;67933;51.060;3.638;2023-04-24T06:50:16;20.45;;;10.00;;
78612;SDS011;67933;51.060;3.638;2023-04-24T06:52:41;18.95;;;8.40;;
78612;SDS011;67933;51.060;3.638;2023-04-24T06:55:07;18.13;;;8.45;;
78612;SDS011;67933;51.060;3.638;2023-04-24T06:57:33;18.67;;;8.63;;
78612;SDS011;67933;51.060;3.638;2023-04-24T06:59:58;19.48;;;7.93;;
78612;SDS011;67933;51.060;3.638;2023-04-24T07:02:24;20.85;;;8.38;;
78612;SDS011;67933;51.060;3.638;2023-04-24T07:04:50;15.93;;;7.05;;
78612;SDS011;67933;51.060;3.638;2023-04-24T07:07:15;16.45;;;7.85;;
78612;SDS011;67933;51.060;3.638;2023-04-24T07:09:41;17.27;;;7.53;;
78612;SDS011;67933;51.060;3.638;2023-04-24T07:12:07;12.50;;;6.70;;
78612;SDS011;67933;51.060;3.638;2023-04-24T07:14:33;16.77;;;7.57;;
78612;SDS011;67933;51.060;3.638;2023-04-24T07:16:59;14.75;;;6.40;;
78612;SDS011;67933;51.060;3.638;2023-04-24T07:19:24;12.15;;;5.85;;
78612;SDS011;67933;51.060;3.638;2023-04-24T07:21:50;15.77;;;6.07;;
78612;SDS011;67933;51.060;3.638;2023-04-24T07:24:15;16.48;;;6.68;;
78612;SDS011;67933;51.060;3.638;2023-04-24T07:26:41;19.08;;;7.35;;
78612;SDS011;67933;51.060;3.638;2023-04-24T07:29:06;15.10;;;7.55;;
78612;SDS011;67933;51.060;3.638;2023-04-24T07:31:32;13.18;;;6.60;;
78612;SDS011;67933;51.060;3.638;2023-04-24T07:33:58;14.60;;;6.20;;
78612;SDS011;67933;51.060;3.638;2023-04-24T07:36:24;14.13;;;5.88;;
78612;SDS011;67933;51.060;3.638;2023-04-24T07:38:51;15.95;;;7.03;;
78612;SDS011;67933;51.060;3.638;2023-04-24T07:41:17;14.43;;;5.85;;
78612;SDS011;67933;51.060;3.638;2023-04-24T07:43:43;11.82;;;4.93;;
78612;SDS011;67933;51.060;3.638;2023-04-24T07:46:09;11.60;;;5.20;;
78612;SDS011;67933;51.060;3.638;2023-04-24T07:48:35;13.80;;;5.60;;
78612;SDS011;67933;51.060;3.638;2023-04-24T07:51:01;14.63;;;5.57;;
78612;SDS011;67933;51.060;3.638;2023-04-24T07:53:26;12.05;;;4.40;;
78612;SDS011;67933;51.060;3.638;2023-04-24T07:55:51;8.77;;;4.40;;
78612;SDS011;67933;51.060;3.638;2023-04-24T07:58:18;12.30;;;4.55;;
78612;SDS011;67933;51.060;3.638;2023-04-24T08:00:44;8.55;;;4.38;;
78612;SDS011;67933;51.060;3.638;2023-04-24T08:03:10;9.02;;;4.53;;
78612;SDS011;67933;51.060;3.638;2023-04-24T08:05:37;10.80;;;3.95;;
78612;SDS011;67933;51.060;3.638;2023-04-24T08:08:03;8.30;;;4.53;;
78612;SDS011;67933;51.060;3.638;2023-04-24T08:10:28;11.70;;;4.32;;
78612;SDS011;67933;51.060;3.638;2023-04-24T08:12:54;10.30;;;4.35;;
78612;SDS011;67933;51.060;3.638;2023-04-24T08:15:20;7.40;;;4.00;;
78612;SDS011;67933;51.060;3.638;2023-04-24T08:17:46;11.13;;;3.90;;
78612;SDS011;67933;51.060;3.638;2023-04-24T08:20:11;8.18;;;3.88;;
78612;SDS011;67933;51.060;3.638;2023-04-24T08:22:40;10.35;;;3.70;;
78612;SDS011;67933;51.060;3.638;2023-04-24T08:25:07;9.45;;;3.90;;
78612;SDS011;67933;51.060;3.638;2023-04-24T08:27:33;9.27;;;3.50;;
78612;SDS011;67933;51.060;3.638;2023-04-24T08:29:58;10.05;;;3.40;;
78612;SDS011;67933;51.060;3.638;2023-04-24T08:32:25;6.60;;;3.13;;
78612;SDS011;67933;51.060;3.638;2023-04-24T08:34:53;7.13;;;3.45;;
78612;SDS011;67933;51.060;3.638;2023-04-24T08:37:21;6.50;;;2.80;;
78612;SDS011;67933;51.060;3.638;2023-04-24T08:39:46;9.88;;;3.17;;
78612;SDS011;67933;51.060;3.638;2023-04-24T08:42:12;9.45;;;3.63;;
78612;SDS011;67933;51.060;3.638;2023-04-24T08:44:39;6.93;;;2.78;;
78612;SDS011;67933;51.060;3.638;2023-04-24T08:47:05;9.20;;;4.10;;
78612;SDS011;67933;51.060;3.638;2023-04-24T08:49:32;8.85;;;3.63;;
78612;SDS011;67933;51.060;3.638;2023-04-24T08:51:58;10.05;;;4.05;;
78612;SDS011;67933;51.060;3.638;2023-04-24T08:54:24;9.82;;;3.97;;
78612;SDS011;67933;51.060;3.638;2023-04-24T08:56:50;7.68;;;4.20;;
78612;SDS011;67933;51.060;3.638;2023-04-24T08:59:18;8.52;;;3.70;;
78612;SDS011;67933;51.060;3.638;2023-04-24T09:01:46;6.40;;;3.60;;
78612;SDS011;67933;51.060;3.638;2023-04-24T09:04:14;7.05;;;4.22;;
78612;SDS011;67933;51.060;3.638;2023-04-24T09:06:42;8.88;;;3.63;;
78612;SDS011;67933;51.060;3.638;2023-04-24T09:09:09;5.95;;;3.17;;
78612;SDS011;67933;51.060;3.638;2023-04-24T09:11:36;7.93;;;3.72;;
78612;SDS011;67933;51.060;3.638;2023-04-24T09:14:02;6.47;;;3.38;;
78612;SDS011;67933;51.060;3.638;2023-04-24T09:16:28;8.07;;;3.50;;
78612;SDS011;67933;51.060;3.638;2023-04-24T09:18:55;8.90;;;3.42;;
78612;SDS011;67933;51.060;3.638;2023-04-24T09:21:21;8.55;;;3.88;;
78612;SDS011;67933;51.060;3.638;2023-04-24T09:23:57;6.70;;;3.50;;
78612;SDS011;67933;51.060;3.638;2023-04-24T09:26:24;6.63;;;3.58;;
78612;SDS011;67933;51.060;3.638;2023-04-24T09:28:50;9.00;;;3.95;;
78612;SDS011;67933;51.060;3.638;2023-04-24T09:31:19;10.52;;;4.30;;
78612;SDS011;67933;51.060;3.638;2023-04-24T09:33:53;6.10;;;3.60;;
78612;SDS011;67933;51.060;3.638;2023-04-24T09:36:19;12.48;;;4.05;;
78612;SDS011;67933;51.060;3.638;2023-04-24T09:39:01;10.35;;;3.92;;
78612;SDS011;67933;51.060;3.638;2023-04-24T09:41:27;6.05;;;3.53;;
78612;SDS011;67933;51.060;3.638;2023-04-24T09:43:54;9.85;;;4.85;;
78612;SDS011;67933;51.060;3.638;2023-04-24T09:46:20;8.48;;;3.15;;
78612;SDS011;67933;51.060;3.638;2023-04-24T09:48:49;8.15;;;3.15;;
78612;SDS011;67933;51.060;3.638;2023-04-24T09:51:14;8.20;;;3.70;;
78612;SDS011;67933;51.060;3.638;2023-04-24T09:53:45;8.93;;;3.38;;
78612;SDS011;67933;51.060;3.638;2023-04-24T09:56:11;8.13;;;3.35;;
78612;SDS011;67933;51.060;3.638;2023-04-24T09:58:39;8.23;;;3.53;;
78612;SDS011;67933;51.060;3.638;2023-04-24T10:01:05;11.75;;;4.18;;
78612;SDS011;67933;51.060;3.638;2023-04-24T10:03:31;6.13;;;3.85;;
78612;SDS011;67933;51.060;3.638;2023-04-24T10:06:00;6.70;;;3.13;;
78612;SDS011;67933;51.060;3.638;2023-04-24T10:08:26;7.80;;;3.20;;
78612;SDS011;67933;51.060;3.638;2023-04-24T10:10:59;5.95;;;3.47;;
78612;SDS011;67933;51.060;3.638;2023-04-24T10:13:25;4.57;;;2.90;;
78612;SDS011;67933;51.060;3.638;2023-04-24T10:15:51;8.55;;;3.35;;
78612;SDS011;67933;51.060;3.638;2023-04-24T10:18:16;5.40;;;3.70;;
78612;SDS011;67933;51.060;3.638;2023-04-24T10:20:46;7.03;;;2.85;;
78612;SDS011;67933;51.060;3.638;2023-04-24T10:23:13;6.80;;;3.15;;
78612;SDS011;67933;51.060;3.638;2023-04-24T10:25:39;5.93;;;3.25;;
78612;SDS011;67933;51.060;3.638;2023-04-24T10:28:05;6.95;;;3.97;;
78612;SDS011;67933;51.060;3.638;2023-04-24T10:30:32;5.55;;;3.28;;
78612;SDS011;67933;51.060;3.638;2023-04-24T10:33:00;4.55;;;3.20;;
78612;SDS011;67933;51.060;3.638;2023-04-24T10:35:26;5.30;;;2.88;;
78612;SDS011;67933;51.060;3.638;2023-04-24T10:37:57;6.00;;;3.20;;
78612;SDS011;67933;51.060;3.638;2023-04-24T10:40:32;5.93;;;3.63;;
78612;SDS011;67933;51.060;3.638;2023-04-24T10:42:59;5.78;;;3.10;;
78612;SDS011;67933;51.060;3.638;2023-04-24T10:45:27;6.20;;;3.25;;
78612;SDS011;67933;51.060;3.638;2023-04-24T10:47:59;5.03;;;3.05;;
78612;SDS011;67933;51.060;3.638;2023-04-24T10:50:30;4.47;;;2.83;;
78612;SDS011;67933;51.060;3.638;2023-04-24T10:53:11;6.18;;;2.95;;
78612;SDS011;67933;51.060;3.638;2023-04-24T10:56:15;6.93;;;2.83;;
78612;SDS011;67933;51.060;3.638;2023-04-24T10:58:40;7.95;;;2.95;;
78612;SDS011;67933;51.060;3.638;2023-04-24T11:01:06;6.80;;;3.13;;
78612;SDS011;67933;51.060;3.638;2023-04-24T11:03:33;6.68;;;3.58;;
78612;SDS011;67933;51.060;3.638;2023-04-24T11:06:06;5.28;;;3.03;;
78612;SDS011;67933;51.060;3.638;2023-04-24T11:08:37;6.05;;;3.05;;
78612;SDS011;67933;51.060;3.638;2023-04-24T11:11:15;5.90;;;3.15;;
78612;SDS011;67933;51.060;3.638;2023-04-24T11:16:21;4.28;;;2.97;;
78612;SDS011;67933;51.060;3.638;2023-04-24T11:18:50;5.53;;;2.97;;
78612;SDS011;67933;51.060;3.638;2023-04-24T11:21:28;4.95;;;2.92;;
78612;SDS011;67933;51.060;3.638;2023-04-24T11:23:58;3.47;;;2.40;;
78612;SDS011;67933;51.060;3.638;2023-04-24T11:26:23;6.63;;;3.63;;
78612;SDS011;67933;51.060;3.638;2023-04-24T11:28:55;7.07;;;2.90;;
78612;SDS011;67933;51.060;3.638;2023-04-24T11:31:39;4.80;;;2.80;;
78612;SDS011;67933;51.060;3.638;2023-04-24T11:34:10;7.38;;;2.55;;
78612;SDS011;67933;51.060;3.638;2023-04-24T11:36:37;5.43;;;2.70;;
78612;SDS011;67933;51.060;3.638;2023-04-24T11:39:03;4.68;;;2.05;;
78612;SDS011;67933;51.060;3.638;2023-04-24T11:41:29;4.78;;;2.50;;
78612;SDS011;67933;51.060;3.638;2023-04-24T11:43:55;4.07;;;2.55;;
78612;SDS011;67933;51.060;3.638;2023-04-24T11:46:21;3.83;;;2.30;;
78612;SDS011;67933;51.060;3.638;2023-04-24T11:48:47;6.00;;;2.22;;
78612;SDS011;67933;51.060;3.638;2023-04-24T11:51:13;3.88;;;2.03;;
78612;SDS011;67933;51.060;3.638;2023-04-24T11:53:39;3.05;;;2.20;;
78612;SDS011;67933;51.060;3.638;2023-04-24T11:56:04;3.40;;;2.05;;
78612;SDS011;67933;51.060;3.638;2023-04-24T11:58:37;4.15;;;2.33;;
78612;SDS011;67933;51.060;3.638;2023-04-24T12:01:04;4.60;;;2.90;;
78612;SDS011;67933;51.060;3.638;2023-04-24T12:03:30;4.20;;;2.70;;
78612;SDS011;67933;51.060;3.638;2023-04-24T12:06:08;6.18;;;2.63;;
78612;SDS011;67933;51.060;3.638;2023-04-24T12:08:36;7.93;;;2.70;;
78612;SDS011;67933;51.060;3.638;2023-04-24T12:11:02;5.22;;;2.67;;
78612;SDS011;67933;51.060;3.638;2023-04-24T12:13:29;6.53;;;2.90;;
78612;SDS011;67933;51.060;3.638;2023-04-24T12:15:56;2.90;;;1.88;;
78612;SDS011;67933;51.060;3.638;2023-04-24T12:18:22;3.60;;;2.08;;
78612;SDS011;67933;51.060;3.638;2023-04-24T12:20:48;4.22;;;2.05;;
78612;SDS011;67933;51.060;3.638;2023-04-24T12:23:14;4.03;;;1.70;;
78612;SDS011;67933;51.060;3.638;2023-04-24T12:25:40;4.20;;;1.70;;
78612;SDS011;67933;51.060;3.638;2023-04-24T12:30:32;5.10;;;1.65;;
78612;SDS011;67933;51.060;3.638;2023-04-24T12:33:03;3.05;;;1.58;;
78612;SDS011;67933;51.060;3.638;2023-04-24T12:35:30;3.65;;;1.67;;
78612;SDS011;67933;51.060;3.638;2023-04-24T12:40:38;3.72;;;1.75;;
78612;SDS011;67933;51.060;3.638;2023-04-24T12:43:12;6.57;;;1.63;;
78612;SDS011;67933;51.060;3.638;2023-04-24T12:45:39;3.75;;;1.90;;
78612;SDS011;67933;51.060;3.638;2023-04-24T12:48:05;2.00;;;1.45;;
78612;SDS011;67933;51.060;3.638;2023-04-24T12:50:30;4.13;;;1.70;;
78612;SDS011;67933;51.060;3.638;2023-04-24T12:52:56;2.05;;;1.55;;
78612;SDS011;67933;51.060;3.638;2023-04-24T12:55:21;2.33;;;1.73;;
78612;SDS011;67933;51.060;3.638;2023-04-24T12:57:47;3.60;;;1.80;;
78612;SDS011;67933;51.060;3.638;2023-04-24T13:00:12;4.45;;;1.75;;
78612;SDS011;67933;51.060;3.638;2023-04-24T13:02:38;3.58;;;1.83;;
78612;SDS011;67933;51.060;3.638;2023-04-24T13:05:04;3.78;;;1.73;;
78612;SDS011;67933;51.060;3.638;2023-04-24T13:07:29;3.22;;;1.60;;
78612;SDS011;67933;51.060;3.638;2023-04-24T13:09:56;3.13;;;1.70;;
78612;SDS011;67933;51.060;3.638;2023-04-24T13:12:22;3.55;;;1.67;;
78612;SDS011;67933;51.060;3.638;2023-04-24T13:14:49;5.28;;;1.92;;
78612;SDS011;67933;51.060;3.638;2023-04-24T13:17:14;3.15;;;1.80;;
78612;SDS011;67933;51.060;3.638;2023-04-24T13:19:41;2.63;;;1.40;;
78612;SDS011;67933;51.060;3.638;2023-04-24T13:24:34;1.48;;;1.20;;
78612;SDS011;67933;51.060;3.638;2023-04-24T13:27:00;2.65;;;1.23;;
78612;SDS011;67933;51.060;3.638;2023-04-24T13:29:25;3.47;;;1.20;;
78612;SDS011;67933;51.060;3.638;2023-04-24T13:31:51;4.18;;;1.58;;
78612;SDS011;67933;51.060;3.638;2023-04-24T13:34:19;2.60;;;1.13;;
78612;SDS011;67933;51.060;3.638;2023-04-24T13:36:44;5.57;;;2.05;;
78612;SDS011;67933;51.060;3.638;2023-04-24T13:39:10;4.40;;;1.23;;
78612;SDS011;67933;51.060;3.638;2023-04-24T13:41:36;4.10;;;1.45;;
78612;SDS011;67933;51.060;3.638;2023-04-24T13:44:02;3.22;;;1.40;;
78612;SDS011;67933;51.060;3.638;2023-04-24T13:46:28;2.95;;;1.20;;
78612;SDS011;67933;51.060;3.638;2023-04-24T13:48:53;3.42;;;1.15;;
78612;SDS011;67933;51.060;3.638;2023-04-24T13:51:19;1.38;;;1.00;;
78612;SDS011;67933;51.060;3.638;2023-04-24T13:53:44;2.40;;;1.45;;
78612;SDS011;67933;51.060;3.638;2023-04-24T13:56:09;2.63;;;1.50;;
78612;SDS011;67933;51.060;3.638;2023-04-24T13:58:35;2.20;;;1.08;;
78612;SDS011;67933;51.060;3.638;2023-04-24T14:01:03;2.67;;;1.17;;
78612;SDS011;67933;51.060;3.638;2023-04-24T14:03:29;1.88;;;1.00;;
78612;SDS011;67933;51.060;3.638;2023-04-24T14:05:55;3.05;;;1.15;;
78612;SDS011;67933;51.060;3.638;2023-04-24T14:08:20;1.20;;;0.88;;
78612;SDS011;67933;51.060;3.638;2023-04-24T14:10:45;1.95;;;1.15;;
78612;SDS011;67933;51.060;3.638;2023-04-24T14:13:11;2.53;;;1.00;;
78612;SDS011;67933;51.060;3.638;2023-04-24T14:15:38;4.50;;;1.73;;
78612;SDS011;67933;51.060;3.638;2023-04-24T14:18:03;3.60;;;0.90;;
78612;SDS011;67933;51.060;3.638;2023-04-24T14:20:29;3.67;;;0.88;;
78612;SDS011;67933;51.060;3.638;2023-04-24T14:22:55;1.58;;;1.00;;
78612;SDS011;67933;51.060;3.638;2023-04-24T14:25:23;1.65;;;0.90;;
78612;SDS011;67933;51.060;3.638;2023-04-24T14:27:49;2.33;;;0.90;;
78612;SDS011;67933;51.060;3.638;2023-04-24T14:30:14;2.67;;;1.20;;
78612;SDS011;67933;51.060;3.638;2023-04-24T14:32:40;3.22;;;1.20;;
78612;SDS011;67933;51.060;3.638;2023-04-24T14:35:06;4.15;;;1.38;;
78612;SDS011;67933;51.060;3.638;2023-04-24T14:37:32;2.50;;;1.23;;
78612;SDS011;67933;51.060;3.638;2023-04-24T14:39:57;2.80;;;1.17;;
78612;SDS011;67933;51.060;3.638;2023-04-24T14:42:23;2.17;;;1.20;;
78612;SDS011;67933;51.060;3.638;2023-04-24T14:44:48;1.52;;;1.30;;